SBJP

Details ICAO SBJP (JPA)
Name Presidente Castro Pinto
Region Brazil
Timezone America/Fortaleza (UTC-3.0)
Plans Departing 46
Arriving 44
Stats Elevation 215 ft / 66 m (AMSL)
Location -7.148382° -34.950680°
Runways 1
Magnetic Variation 21.767° W
Sunrise 2017-12-17 08:01:15 UTC / 2017-12-17 05:01:15 Local
Sunset 2017-12-17 20:33:26 UTC / 2017-12-17 17:33:26 Local
Advertisement - Login to hide

Runways

ID Width Length Bearing (true) Bearing (mag) Surface Threshold Offset Overrun Length
16 148 ft / 45 m 8,282 ft / 2,524 m 135.67° 157.44° Asphalt 0 ft / 0 m 0 ft / 0 m
34 148 ft / 45 m 8,282 ft / 2,524 m 315.67° 337.44° Asphalt 0 ft / 0 m 200 ft / 61 m

Map

Weather


0- 5 10 15 20 25 30 35+ Temperature / ° C

Clouds and Precipitation
Forecast for 2017-12-17 18:00 UTC. Updated an hour ago

Ground ~20,000 ft ~40,000 ft Winds

METAR

SBJP 171600Z 10013KT 9999 BKN030 30/21 Q1013

TAF

TAF SBJP 171000Z 1712/1812 13013KT 9999 BKN025 TX31/1714Z TN24/1808Z BECMG 1717/1718 SCT030 BECMG 1721/1722 14007KT BECMG 1810/1811 14013KT BKN025 RMK PEU

Frequencies

Tower 118.30 MHz PESSOA TWR
Approach 118.30 MHz PESSOA CON
Warning: Do not use this data for real-world aviation or navigation. No guarantee of current accuracy is given.